Time;durP1;ratioP1;P1;durP2;ratioP2;P2;SDS_P1;SDS_P2;PMS_P1;PMS_P2;Temp;Humidity;BMP_temperature;BMP_pressure;BME280_temperature;BME280_humidity;BME280_pressure;Samples;Min_cycle;Max_cycle;Signal;HPM_P1;HPM_P2
2023/03/22 00:00:41;;;;;;;12.38;8.25;;;;;;;4.19;96.37;100305.13;10298925;28;20073;-81
2023/03/22 00:05:41;;;;;;;43.42;21.83;;;;;;;3.62;95.84;100265.13;10298894;28;20070;-80
2023/03/22 00:10:42;;;;;;;31.23;16.13;;;;;;;3.16;96.54;100205.84;10298598;28;20046;-82
2023/03/22 00:15:47;;;;;;;32.83;15.68;;;;;;;3.87;97.04;100285.81;10298878;28;20495;-83
2023/03/22 00:20:51;;;;;;;21.38;11.20;;;;;;;4.23;96.91;100346.00;10298107;28;20108;-83
2023/03/22 00:25:52;;;;;;;22.35;14.75;;;;;;;3.83;96.15;100321.19;10298471;28;20487;-83
2023/03/22 00:30:58;;;;;;;22.98;13.18;;;;;;;3.72;96.24;100310.72;10298206;28;20039;-80
2023/03/22 00:36:04;;;;;;;35.55;19.40;;;;;;;3.55;96.33;100279.72;10297851;28;20042;-82
2023/03/22 00:41:16;;;;;;;24.27;14.80;;;;;;;3.88;95.87;100366.31;10297618;28;20086;-83
2023/03/22 00:46:18;;;;;;;25.63;13.15;;;;;;;4.00;96.42;100401.28;10296609;28;20039;-83
2023/03/22 00:51:19;;;;;;;62.40;30.65;;;;;;;3.72;96.63;100336.16;10296823;28;20038;-83
2023/03/22 00:56:21;;;;;;;18.77;11.05;;;;;;;4.18;97.32;100403.38;10303952;28;20044;-83
2023/03/22 01:01:22;;;;;;;24.88;12.02;;;;;;;3.80;97.88;100336.34;10326673;28;20047;-82
2023/03/22 01:06:26;;;;;;;17.85;10.43;;;;;;;3.18;96.67;100244.16;10295720;28;20039;-85
2023/03/22 01:11:27;;;;;;;15.40;8.70;;;;;;;3.51;96.11;100342.19;10320422;28;20137;-83
2023/03/22 01:16:28;;;;;;;15.45;9.38;;;;;;;2.80;95.98;100262.09;10328836;28;20324;-82
2023/03/22 01:21:28;;;;;;;12.38;7.03;;;;;;;2.59;96.70;100233.13;10329066;28;20082;-83
2023/03/22 01:26:30;;;;;;;17.58;5.95;;;;;;;3.19;96.34;100344.72;10295613;28;20594;-83
2023/03/22 01:31:30;;;;;;;7.70;5.57;;;;;;;3.06;97.04;100297.63;10323851;28;20193;-82
2023/03/22 01:36:31;;;;;;;9.65;5.80;;;;;;;3.67;97.61;100362.78;10335323;28;20054;-83
2023/03/22 01:41:33;;;;;;;11.73;7.38;;;;;;;3.40;97.66;100279.19;10332106;28;20043;-83
2023/03/22 01:46:35;;;;;;;12.63;7.38;;;;;;;4.55;97.71;100428.34;10294788;28;20034;-83
2023/03/22 01:51:37;;;;;;;12.15;8.25;;;;;;;4.23;97.77;100359.16;10293347;28;20404;-83
2023/03/22 01:56:41;;;;;;;11.27;6.97;;;;;;;4.32;98.42;100340.81;10294941;28;20437;-83
2023/03/22 02:01:45;;;;;;;14.27;6.00;;;;;;;4.48;98.02;100353.50;10309221;28;20132;-84
2023/03/22 02:06:47;;;;;;;11.15;6.22;;;;;;;4.61;98.21;100347.19;10292589;28;20411;-84
2023/03/22 02:12:03;;;;;;;9.00;6.03;;;;;;;4.88;99.51;100360.69;10292112;28;20073;-84
2023/03/22 02:17:09;;;;;;;14.98;9.05;;;;;;;5.49;99.38;100452.84;10294049;28;20067;-88
2023/03/22 02:22:44;;;;;;;14.55;8.98;;;;;;;5.54;100.00;100446.34;10291505;28;20537;-85
2023/03/22 02:28:04;;;;;;;11.52;7.43;;;;;;;4.83;99.91;100362.03;10293770;28;20055;-87
2023/03/22 02:33:23;;;;;;;9.20;6.22;;;;;;;5.25;99.82;100457.59;10292780;28;20125;-86
2023/03/22 02:38:41;;;;;;;9.10;6.07;;;;;;;5.16;100.00;100469.72;10292488;28;20049;-85
2023/03/22 02:43:50;;;;;;;14.10;8.40;;;;;;;5.11;100.00;100461.38;10292467;28;20053;-86
2023/03/22 02:49:20;;;;;;;11.65;6.70;;;;;;;5.04;100.00;100460.25;10292585;28;20046;-86
2023/03/22 02:54:30;;;;;;;12.35;6.43;;;;;;;4.44;99.41;100365.25;10308278;28;20050;-83
2023/03/22 02:59:36;;;;;;;12.32;6.50;;;;;;;4.61;99.53;100386.66;10295763;28;20058;-83
2023/03/22 03:04:43;;;;;;;15.00;6.47;;;;;;;5.21;99.02;100470.19;10308940;28;20088;-84
2023/03/22 03:09:44;;;;;;;14.90;8.88;;;;;;;5.16;98.88;100459.19;10329016;28;20503;-86
2023/03/22 03:14:45;;;;;;;12.02;7.70;;;;;;;4.83;98.98;100412.88;10291656;28;20062;-87
2023/03/22 03:20:07;;;;;;;16.05;8.13;;;;;;;5.26;99.98;100475.03;10287314;28;20414;-88
2023/03/22 03:26:03;;;;;;;14.38;9.93;;;;;;;3.99;100.00;100241.91;10285149;28;20051;-89
2023/03/22 03:31:18;;;;;;;24.38;10.73;;;;;;;5.68;100.00;100475.81;10236375;28;20050;-86
2023/03/22 03:36:21;;;;;;;16.02;8.88;;;;;;;5.77;100.00;100471.53;10291779;28;20089;-91
2023/03/22 03:41:26;;;;;;;18.50;10.88;;;;;;;5.53;100.00;100402.50;10312727;28;20112;-91
2023/03/22 03:46:28;;;;;;;17.98;11.68;;;;;;;4.90;100.00;100300.81;10330976;28;20042;-92
2023/03/22 04:22:01;;;;;;;23.45;13.77;;;;;;;5.91;100.00;100276.03;10334194;28;20050;-85
2023/03/22 04:27:07;;;;;;;20.27;15.00;;;;;;;5.59;100.00;100193.78;10344728;28;20453;-87
2023/03/22 04:38:47;;;;;;;24.35;15.52;;;;;;;7.20;100.00;100411.13;10180512;28;20139;-86
2023/03/22 04:43:49;;;;;;;24.23;14.73;;;;;;;7.19;99.63;100397.09;10268811;28;20047;-79
2023/03/22 04:48:50;;;;;;;25.65;14.63;;;;;;;6.27;99.49;100204.25;10355059;28;20057;-87
2023/03/22 04:53:51;;;;;;;25.02;16.10;;;;;;;7.93;99.49;100448.22;10317742;28;20137;-86
2023/03/22 04:59:00;;;;;;;20.95;14.65;;;;;;;8.62;99.11;100510.34;10349320;28;20092;-86
2023/03/22 05:05:13;;;;;;;22.38;14.30;;;;;;;7.27;99.46;100237.84;10351567;28;20049;-85
2023/03/22 05:57:21;;;;;;;;;;;;;;;;;;;;;
2023/03/22 06:09:13;;;;;;;29.90;21.27;;;;;;;10.70;87.41;100179.84;9914321;29;20053;-84
2023/03/22 06:14:46;;;;;;;;;;;;;;;;;;;;;
2023/03/22 06:26:41;;;;;;;33.92;22.52;;;;;;;11.60;83.94;100176.63;10204550;28;20048;-84
2023/03/22 06:31:46;;;;;;;32.70;22.92;;;;;;;12.13;83.80;100267.22;10208990;29;20051;-84
2023/03/22 06:36:57;;;;;;;238.88;146.35;;;;;;;12.82;81.17;100331.00;10311458;28;20414;-84
2023/03/22 06:42:07;;;;;;;50.13;31.48;;;;;;;13.05;80.67;100290.91;10347945;28;20046;-83
2023/03/22 06:47:11;;;;;;;44.03;27.33;;;;;;;12.45;80.06;100204.81;10332624;28;20529;-84
2023/03/22 06:52:12;;;;;;;48.43;30.33;;;;;;;13.25;79.20;100284.00;10331309;28;20043;-84
2023/03/22 06:57:12;;;;;;;34.00;24.40;;;;;;;13.87;78.57;100390.25;10332212;28;20038;-83
2023/03/22 07:02:13;;;;;;;34.22;23.77;;;;;;;14.13;79.12;100461.03;10347970;28;20050;-83
2023/03/22 07:07:14;;;;;;;35.45;24.27;;;;;;;13.87;78.40;100449.00;10333121;28;20047;-83
2023/03/22 07:12:15;;;;;;;35.30;23.75;;;;;;;13.47;77.63;100378.28;10331324;28;20054;-82
2023/03/22 07:17:16;;;;;;;33.72;23.85;;;;;;;12.81;77.47;100273.38;10332253;28;20449;-83
2023/03/22 07:22:17;;;;;;;33.40;24.15;;;;;;;14.15;76.88;100467.00;10346415;28;20050;-83
2023/03/22 07:27:18;;;;;;;34.10;23.40;;;;;;;13.86;75.88;100369.09;10330795;28;20161;-84
2023/03/22 07:32:19;;;;;;;34.50;22.30;;;;;;;14.03;75.22;100346.47;10331520;28;20054;-82
2023/03/22 07:37:20;;;;;;;37.28;21.20;;;;;;;14.66;74.37;100428.66;10332033;28;20394;-83
2023/03/22 07:42:20;;;;;;;44.13;24.92;;;;;;;14.55;74.09;100422.00;10330847;28;20095;-83
2023/03/22 07:47:22;;;;;;;37.72;24.42;;;;;;;14.26;74.28;100388.19;10331519;28;20066;-84
2023/03/22 07:52:22;;;;;;;39.63;25.30;;;;;;;14.50;74.03;100433.22;10331895;28;20042;-82
2023/03/22 07:57:23;;;;;;;41.58;23.85;;;;;;;14.84;73.41;100447.78;10331056;28;20038;-83
2023/03/22 08:02:24;;;;;;;33.85;23.98;;;;;;;15.27;72.17;100456.50;10331387;28;20038;-83
2023/03/22 08:07:25;;;;;;;30.58;21.25;;;;;;;15.43;70.39;100412.53;10338778;28;20070;-83
2023/03/22 08:12:26;;;;;;;32.28;20.55;;;;;;;15.27;68.83;100316.53;10339108;28;20399;-83
2023/03/22 08:17:29;;;;;;;33.38;19.52;;;;;;;16.02;67.79;100411.16;10338100;28;20054;-82
2023/03/22 08:22:29;;;;;;;27.88;20.02;;;;;;;15.73;67.32;100326.59;10338661;28;20045;-82
2023/03/22 08:27:30;;;;;;;26.40;18.35;;;;;;;16.96;65.82;100460.41;10337161;28;20526;-83
2023/03/22 08:32:33;;;;;;;30.67;18.35;;;;;;;16.46;64.15;100325.88;10338689;28;20042;-82
2023/03/22 08:37:33;;;;;;;34.35;21.50;;;;;;;15.40;64.65;100217.53;10337990;28;20129;-82
2023/03/22 08:42:35;;;;;;;28.70;18.45;;;;;;;16.07;65.69;100373.88;10337790;28;20475;-82
2023/03/22 08:47:36;;;;;;;25.42;16.90;;;;;;;16.34;64.47;100352.47;10337244;28;20482;-82
2023/03/22 08:52:37;;;;;;;26.10;15.15;;;;;;;16.62;62.19;100347.72;10336020;28;20038;-82
2023/03/22 08:57:37;;;;;;;24.02;14.85;;;;;;;15.42;61.10;100147.75;10337301;28;20414;-82
2023/03/22 09:02:38;;;;;;;24.52;14.90;;;;;;;16.24;61.48;100331.41;10336637;28;20042;-81
2023/03/22 09:07:40;;;;;;;21.35;13.48;;;;;;;16.21;60.94;100345.22;10336014;28;20581;-81
2023/03/22 09:12:41;;;;;;;30.98;13.63;;;;;;;16.09;60.06;100326.25;10336101;28;20087;-82
2023/03/22 09:17:41;;;;;;;19.08;12.63;;;;;;;16.95;58.78;100322.72;10335979;28;20486;-82
2023/03/22 09:22:42;;;;;;;22.38;12.60;;;;;;;17.93;57.49;100349.41;10335155;28;20065;-82
2023/03/22 09:27:43;;;;;;;24.70;13.52;;;;;;;18.15;55.70;100366.00;10334976;28;20046;-81
2023/03/22 09:32:44;;;;;;;23.90;13.18;;;;;;;17.21;56.52;100340.63;10335421;28;20479;-81
2023/03/22 09:37:45;;;;;;;15.73;10.25;;;;;;;17.08;57.43;100405.91;10335497;28;20529;-79
2023/03/22 09:42:48;;;;;;;12.40;8.00;;;;;;;17.29;56.28;100407.50;10334915;28;20418;-81
2023/03/22 09:47:53;;;;;;;18.05;9.88;;;;;;;18.41;54.94;100399.13;10334826;28;20042;-78
2023/03/22 09:52:54;;;;;;;20.98;12.02;;;;;;;18.31;54.11;100299.28;10334636;28;20490;-81
2023/03/22 09:58:13;;;;;;;21.33;12.73;;;;;;;18.55;54.36;100395.31;10332660;28;20042;-81
2023/03/22 10:03:37;;;;;;;24.08;13.27;;;;;;;17.57;55.41;100345.44;10333586;28;20045;-81
2023/03/22 10:08:53;;;;;;;18.73;11.75;;;;;;;17.46;55.83;100380.19;10333974;28;20474;-81
2023/03/22 10:14:01;;;;;;;22.27;11.50;;;;;;;17.17;54.24;100205.19;10334339;28;20069;-81
2023/03/22 10:19:25;;;;;;;18.63;10.07;;;;;;;18.31;51.84;100270.53;10333676;28;20045;-81
2023/03/22 10:24:31;;;;;;;17.60;10.10;;;;;;;19.20;52.08;100349.16;10347937;28;20034;-80
2023/03/22 10:29:38;;;;;;;13.30;8.48;;;;;;;19.04;50.27;100331.72;10333112;28;20513;-80
2023/03/22 10:34:39;;;;;;;14.60;8.00;;;;;;;18.18;51.63;100231.13;10333862;28;20049;-78
2023/03/22 10:39:45;;;;;;;14.93;8.30;;;;;;;19.00;49.80;100275.88;10333365;28;20046;-81
2023/03/22 10:44:54;;;;;;;17.65;8.93;;;;;;;19.55;49.41;100273.91;10331946;28;20050;-80
2023/03/22 10:49:57;;;;;;;17.50;12.05;;;;;;;18.55;50.12;100217.75;10332598;28;20049;-79
2023/03/22 10:54:59;;;;;;;15.48;8.43;;;;;;;18.01;50.59;100192.44;10332993;28;20050;-79
2023/03/22 11:00:08;;;;;;;15.68;8.13;;;;;;;19.16;49.30;100335.31;10331900;28;20049;-80
2023/03/22 11:05:23;;;;;;;31.27;18.30;;;;;;;18.82;47.55;100239.84;10331784;28;20887;-78
2023/03/22 11:10:31;;;;;;;18.05;10.98;;;;;;;18.78;49.04;100262.03;10332621;28;20081;-78
2023/03/22 11:15:35;;;;;;;57.17;31.98;;;;;;;18.85;49.76;100324.69;10331809;28;20050;-77
2023/03/22 11:20:38;;;;;;;;;;;;;;;19.05;50.93;100327.16;10334772;28;20068;-84
2023/03/22 11:25:46;;;;;;;18.33;11.55;;;;;;;18.61;50.01;100305.66;10350610;28;19921;-86
2023/03/22 11:31:01;;;;;;;16.17;8.93;;;;;;;18.41;50.15;100294.25;10321158;28;20050;-85
2023/03/22 11:36:13;;;;;;;15.73;8.93;;;;;;;17.88;51.15;100298.16;10332754;28;20565;-87
2023/03/22 11:41:24;;;;;;;17.20;8.75;;;;;;;17.49;51.53;100248.16;10337760;28;20038;-88
2023/03/22 11:46:25;;;;;;;19.98;8.20;;;;;;;17.76;51.98;100300.69;10339542;28;20113;-84
2023/03/22 11:51:38;;;;;;;15.43;8.32;;;;;;;17.67;52.31;100255.50;10339597;28;20115;-83
2023/03/22 11:56:44;;;;;;;14.50;8.07;;;;;;;18.06;51.29;100310.84;10339303;28;20046;-84
2023/03/22 12:02:05;;;;;;;21.10;8.30;;;;;;;18.25;50.84;100306.38;10338720;28;20092;-89
2023/03/22 12:07:15;;;;;;;43.20;23.60;;;;;;;18.29;50.60;100320.22;10341000;28;20062;-82
2023/03/22 12:12:24;;;;;;;67.78;42.78;;;;;;;18.12;50.75;100312.66;10363176;28;20045;-77
2023/03/22 12:17:28;;;;;;;54.08;35.60;;;;;;;18.07;51.28;100317.91;10355956;28;20129;-79
2023/03/22 12:22:35;;;;;;;20.63;11.82;;;;;;;18.15;50.76;100317.59;10349624;28;20042;-79
2023/03/22 12:27:41;;;;;;;20.38;8.13;;;;;;;17.57;50.67;100237.16;10364693;28;20393;-79
2023/03/22 12:33:06;;;;;;;19.48;7.80;;;;;;;17.38;51.37;100192.44;10352361;28;20513;-79
2023/03/22 12:38:26;;;;;;;12.70;7.88;;;;;;;18.02;51.54;100315.03;10355681;28;20499;-79
2023/03/22 12:43:51;;;;;;;12.73;7.88;;;;;;;18.12;51.21;100307.28;10377889;28;20074;-79
2023/03/22 12:49:03;;;;;;;16.55;8.35;;;;;;;18.03;51.23;100312.09;10356492;28;20457;-76
2023/03/22 12:54:04;;;;;;;15.43;8.63;;;;;;;17.69;51.69;100278.41;10377942;28;20038;-89
2023/03/22 12:59:16;;;;;;;15.50;8.10;;;;;;;17.76;51.63;100303.38;10345242;28;20065;-84
2023/03/22 13:04:37;;;;;;;13.95;8.40;;;;;;;17.78;52.02;100303.19;10337194;28;20042;-89
2023/03/22 13:09:42;;;;;;;17.33;8.43;;;;;;;17.62;52.78;100299.13;10329612;28;20499;-88
2023/03/22 13:14:51;;;;;;;17.85;10.80;;;;;;;17.56;52.74;100316.09;10352846;28;20046;-85
2023/03/22 13:20:05;;;;;;;22.30;12.43;;;;;;;17.53;52.93;100321.91;10337490;28;20050;-87
2023/03/22 13:25:12;;;;;;;;;;;;;;;17.69;52.90;100310.66;10336915;28;20061;-89
2023/03/22 13:30:27;;;;;;;15.25;8.18;;;;;;;16.99;52.14;100221.16;10351399;28;19918;-88
2023/03/22 13:35:37;;;;;;;15.00;8.05;;;;;;;17.47;52.67;100312.00;10350935;28;20069;-89
2023/03/22 13:40:48;;;;;;;15.93;8.45;;;;;;;17.43;52.60;100311.59;10351166;28;20049;-88
2023/03/22 13:46:08;;;;;;;13.70;8.00;;;;;;;17.40;52.45;100319.28;10338847;28;20045;-78
2023/03/22 13:51:21;;;;;;;16.80;8.57;;;;;;;17.03;52.85;100305.56;10345620;28;20039;-91
2023/03/22 13:56:40;;;;;;;15.20;8.13;;;;;;;17.07;53.13;100321.03;10348366;28;20034;-91
2023/03/22 14:01:49;;;;;;;16.27;8.43;;;;;;;16.94;53.87;100336.38;10354921;28;20112;-96
2023/03/22 14:06:58;;;;;;;19.58;8.45;;;;;;;16.78;53.69;100319.69;10341111;28;20057;-93
2023/03/22 14:12:15;;;;;;;16.73;8.90;;;;;;;16.80;53.67;100322.13;10329825;28;20545;-91
2023/03/22 14:17:28;;;;;;;29.05;15.90;;;;;;;16.55;53.62;100311.22;10337069;28;20057;-89
2023/03/22 14:22:37;;;;;;;29.15;12.25;;;;;;;16.49;54.06;100298.66;10339552;28;20137;-92
2023/03/22 14:27:40;;;;;;;17.63;8.90;;;;;;;16.70;54.03;100322.53;10339939;28;20065;-92
2023/03/22 14:32:43;;;;;;;17.83;8.43;;;;;;;16.72;54.05;100346.47;10331875;28;20046;-90
2023/03/22 14:37:46;;;;;;;17.35;8.68;;;;;;;15.73;54.54;100216.78;10336749;28;20049;-90
2023/03/22 14:42:47;;;;;;;16.13;8.70;;;;;;;16.52;55.02;100352.69;10340185;28;20042;-92
2023/03/22 14:47:48;;;;;;;18.58;8.93;;;;;;;16.31;55.65;100345.66;10332451;28;20505;-89
2023/03/22 14:52:51;;;;;;;27.25;9.70;;;;;;;16.10;56.00;100319.06;10337424;28;20453;-89
2023/03/22 14:57:56;;;;;;;15.32;8.93;;;;;;;16.28;55.90;100362.16;10336640;28;20442;-87
2023/03/22 15:03:08;;;;;;;14.45;9.07;;;;;;;16.17;56.45;100368.13;10334876;28;20038;-89
2023/03/22 15:08:16;;;;;;;20.65;9.35;;;;;;;16.04;56.74;100376.16;10334823;28;20058;-89
2023/03/22 15:13:19;;;;;;;24.98;11.10;;;;;;;15.62;57.10;100343.22;10333022;28;20136;-89
2023/03/22 15:18:23;;;;;;;23.00;10.50;;;;;;;15.82;57.58;100384.31;10334141;28;20091;-87
2023/03/22 15:23:34;;;;;;;16.60;10.17;;;;;;;15.37;58.32;100335.69;10334933;28;20125;-89
2023/03/22 15:29:01;;;;;;;16.58;10.18;;;;;;;15.58;58.49;100387.47;10323823;28;22097;-77
2023/03/22 15:34:05;;;;;;;18.45;10.98;;;;;;;15.37;58.71;100370.50;10366562;28;20559;-80
2023/03/22 15:39:37;;;;;;;21.35;12.35;;;;;;;15.46;58.91;100396.06;10369879;28;20038;-79
2023/03/22 15:44:39;;;;;;;20.05;11.45;;;;;;;15.02;58.92;100346.47;10372297;28;20038;-80
2023/03/22 15:49:57;;;;;;;21.25;11.07;;;;;;;14.88;59.48;100335.88;10365668;28;20038;-80
2023/03/22 15:55:02;;;;;;;31.05;11.10;;;;;;;14.81;59.67;100352.69;10388106;28;20133;-80
2023/03/22 16:00:10;;;;;;;36.03;16.13;;;;;;;15.01;60.16;100417.00;10366715;28;20026;-82
2023/03/22 16:05:11;;;;;;;57.28;32.72;;;;;;;14.43;60.06;100330.78;10368952;28;20073;-80
2023/03/22 16:10:20;;;;;;;82.03;47.63;;;;;;;14.87;60.59;100403.75;10364331;28;20058;-80
2023/03/22 16:15:27;;;;;;;67.35;33.38;;;;;;;14.25;60.92;100323.25;10368900;28;20030;-80
2023/03/22 16:20:31;;;;;;;45.97;23.50;;;;;;;14.16;61.17;100330.56;10382253;28;20046;-80
2023/03/22 16:25:33;;;;;;;;;;;;;;;14.86;61.21;100418.16;10375905;28;20433;-81
2023/03/22 16:30:36;;;;;;;71.88;32.13;;;;;;;14.62;62.22;100430.91;10392043;28;20027;-79
2023/03/22 16:35:37;;;;;;;69.40;30.05;;;;;;;14.06;62.27;100343.41;10420011;28;20049;-79
2023/03/22 16:40:45;;;;;;;53.30;20.33;;;;;;;14.01;63.40;100351.16;10388544;28;20049;-80
2023/03/22 16:45:47;;;;;;;42.00;20.33;;;;;;;13.52;63.37;100295.84;10377725;28;20042;-80
2023/03/22 16:50:48;;;;;;;57.97;27.40;;;;;;;14.35;64.16;100433.28;10399522;28;20060;-81
2023/03/22 16:55:49;;;;;;;59.75;28.85;;;;;;;14.13;64.22;100399.56;10418925;28;20041;-80
2023/03/22 17:00:50;;;;;;;46.17;17.65;;;;;;;13.61;63.73;100326.72;10418681;28;20123;-80
2023/03/22 17:05:51;;;;;;;37.92;19.80;;;;;;;12.66;64.31;100214.72;10382437;28;20045;-81
2023/03/22 17:10:52;;;;;;;38.00;18.33;;;;;;;13.49;64.85;100376.28;10376682;28;20061;-81
2023/03/22 17:15:53;;;;;;;35.17;18.92;;;;;;;13.27;65.09;100345.19;10376556;28;20473;-80
2023/03/22 17:20:54;;;;;;;41.03;21.40;;;;;;;13.95;64.77;100433.91;10376933;28;20037;-80
2023/03/22 17:25:55;;;;;;;42.30;21.25;;;;;;;13.73;64.51;100384.94;10390854;28;20099;-80
2023/03/22 17:30:55;;;;;;;43.97;28.70;;;;;;;13.65;64.76;100378.72;10410493;28;20033;-79
2023/03/22 17:35:57;;;;;;;36.30;22.67;;;;;;;13.57;65.17;100376.13;10416882;28;20038;-81
2023/03/22 17:40:57;;;;;;;41.13;21.13;;;;;;;13.39;65.95;100378.38;10408543;28;20049;-79
2023/03/22 17:45:58;;;;;;;36.90;20.48;;;;;;;13.56;66.76;100437.72;10397258;28;20049;-80
2023/03/22 17:50:59;;;;;;;34.67;21.52;;;;;;;12.62;67.36;100310.19;10374975;28;20041;-81
2023/03/22 17:56:00;;;;;;;43.58;23.05;;;;;;;13.36;67.66;100438.28;10386840;28;20045;-81
2023/03/22 18:01:00;;;;;;;47.65;22.33;;;;;;;12.41;68.23;100302.91;10392143;28;20533;-82
2023/03/22 18:06:01;;;;;;;36.00;19.50;;;;;;;13.21;68.33;100430.22;10394357;28;20053;-82
2023/03/22 18:11:03;;;;;;;34.15;20.63;;;;;;;13.17;68.40;100441.47;10388286;28;20050;-82
2023/03/22 18:16:05;;;;;;;45.65;20.08;;;;;;;12.44;68.95;100334.50;10364325;28;20038;-82
2023/03/22 18:21:08;;;;;;;50.20;18.60;;;;;;;13.09;69.49;100426.34;10394350;28;20041;-82
2023/03/22 18:26:13;;;;;;;42.67;20.95;;;;;;;12.49;69.32;100349.97;10397414;28;20045;-82
2023/03/22 18:31:14;;;;;;;46.15;24.55;;;;;;;12.52;69.82;100360.25;10415026;28;20045;-82
2023/03/22 18:36:15;;;;;;;53.38;24.05;;;;;;;12.85;70.27;100427.44;10383960;28;20040;-81
2023/03/22 18:41:17;;;;;;;39.83;20.27;;;;;;;12.75;70.87;100430.34;10374057;28;20056;-81
2023/03/22 18:46:18;;;;;;;45.28;21.80;;;;;;;12.40;71.29;100397.16;10372936;28;20038;-81
2023/03/22 18:51:19;;;;;;;42.17;21.30;;;;;;;10.90;71.71;100180.25;10389687;28;20045;-81
2023/03/22 18:56:20;;;;;;;47.13;22.30;;;;;;;11.68;72.02;100308.78;10373309;28;20092;-81
2023/03/22 19:01:21;;;;;;;43.50;21.58;;;;;;;10.82;72.45;100202.34;10387633;28;20071;-81
2023/03/22 19:06:22;;;;;;;46.40;22.40;;;;;;;11.98;72.93;100418.91;10373259;28;20076;-81
2023/03/22 19:11:22;;;;;;;54.38;27.10;;;;;;;10.71;73.79;100229.34;10373545;28;20076;-82
2023/03/22 19:16:23;;;;;;;48.22;22.30;;;;;;;10.70;73.78;100267.50;10371026;28;20520;-81
2023/03/22 19:21:25;;;;;;;47.58;23.67;;;;;;;10.75;73.63;100254.53;10372192;28;20422;-81
2023/03/22 19:26:27;;;;;;;28.63;15.80;;;;;;;11.19;73.19;100309.88;10370574;28;20050;-81
2023/03/22 19:31:29;;;;;;;30.25;15.43;;;;;;;11.15;72.64;100305.88;10373378;28;20049;-80
2023/03/22 19:36:30;;;;;;;24.88;11.25;;;;;;;11.49;72.48;100360.59;10372417;28;20072;-81
2023/03/22 19:41:31;;;;;;;27.45;9.43;;;;;;;10.99;71.88;100280.19;10372993;28;20084;-82
2023/03/22 19:46:31;;;;;;;19.20;8.30;;;;;;;11.20;71.84;100314.19;10372330;28;20100;-82
2023/03/22 19:51:32;;;;;;;21.50;7.68;;;;;;;10.78;72.06;100256.84;10371943;28;20038;-82
2023/03/22 19:56:33;;;;;;;15.75;7.20;;;;;;;9.87;72.12;100143.88;10371918;28;20038;-81
2023/03/22 20:01:35;;;;;;;20.35;6.88;;;;;;;11.29;72.84;100371.66;10390465;28;20049;-81
2023/03/22 20:06:36;;;;;;;23.42;8.27;;;;;;;10.59;73.16;100270.50;10379964;28;20074;-81
2023/03/22 20:11:37;;;;;;;22.08;7.72;;;;;;;11.24;73.74;100363.34;10380071;28;20058;-81
2023/03/22 20:16:38;;;;;;;15.90;6.75;;;;;;;10.23;73.93;100213.31;10379665;28;20053;-83
2023/03/22 20:21:40;;;;;;;21.75;7.55;;;;;;;10.64;74.25;100276.16;10377979;28;20405;-81
2023/03/22 20:26:41;;;;;;;17.63;7.25;;;;;;;9.85;74.11;100153.00;10377971;28;20136;-81
2023/03/22 20:31:42;;;;;;;30.15;8.07;;;;;;;10.47;74.46;100265.59;10377424;28;20124;-81
2023/03/22 20:36:45;;;;;;;16.48;7.38;;;;;;;10.20;74.79;100226.09;10383814;28;20046;-82
2023/03/22 20:41:46;;;;;;;24.83;7.50;;;;;;;10.79;74.41;100321.44;10417644;28;20059;-82
2023/03/22 20:46:46;;;;;;;23.92;7.35;;;;;;;9.87;73.91;100173.06;10387650;28;20052;-82
2023/03/22 20:51:47;;;;;;;20.80;7.43;;;;;;;9.56;74.08;100139.25;10378063;28;20045;-82
2023/03/22 20:56:48;;;;;;;22.95;8.00;;;;;;;9.97;74.44;100221.47;10377636;28;20070;-82
2023/03/22 21:01:49;;;;;;;24.60;8.32;;;;;;;9.90;75.51;100289.47;10378881;28;20449;-82
2023/03/22 21:06:50;;;;;;;17.25;8.88;;;;;;;9.42;76.98;100269.81;10376390;28;20042;-82
2023/03/22 21:11:51;;;;;;;25.92;9.48;;;;;;;8.81;78.09;100237.34;10377279;28;20075;-82
2023/03/22 21:16:51;;;;;;;26.10;10.63;;;;;;;9.36;78.71;100380.03;10375135;28;20045;-82
2023/03/22 21:21:52;;;;;;;26.65;11.13;;;;;;;9.07;78.77;100334.50;10377613;28;20158;-82
2023/03/22 21:26:53;;;;;;;25.30;11.45;;;;;;;8.38;79.43;100257.66;10376634;28;20046;-81
2023/03/22 21:32:03;;;;;;;32.67;11.57;;;;;;;8.27;81.54;100273.75;10391324;28;20485;-82
2023/03/22 21:37:05;;;;;;;31.35;12.25;;;;;;;7.27;80.43;100164.69;10375853;28;20038;-81
2023/03/22 21:42:09;;;;;;;24.27;12.18;;;;;;;8.40;81.03;100339.53;10376146;28;20441;-81
2023/03/22 21:47:09;;;;;;;33.40;14.03;;;;;;;7.98;80.82;100280.13;10376830;28;20038;-81
2023/03/22 21:52:10;;;;;;;30.00;11.35;;;;;;;7.91;80.99;100275.63;10375525;28;20486;-81
2023/03/22 21:57:12;;;;;;;41.15;14.38;;;;;;;7.57;81.42;100234.00;10374925;28;20182;-81
2023/03/22 22:02:17;;;;;;;31.45;13.73;;;;;;;8.00;82.38;100314.38;10375325;28;20045;-81
2023/03/22 22:07:18;;;;;;;34.67;14.65;;;;;;;7.94;81.95;100297.28;10375102;28;20502;-82
2023/03/22 22:12:19;;;;;;;35.75;14.73;;;;;;;7.80;82.09;100260.78;10375896;28;20049;-81
2023/03/22 22:17:20;;;;;;;24.63;12.52;;;;;;;7.69;81.97;100239.91;10374817;28;20042;-82
2023/03/22 22:22:21;;;;;;;21.92;11.88;;;;;;;7.58;82.44;100217.16;10374230;28;20081;-82
2023/03/22 22:27:23;;;;;;;29.70;13.25;;;;;;;7.77;83.05;100201.09;10379828;28;20497;-82
2023/03/22 22:32:23;;;;;;;29.98;13.10;;;;;;;8.03;82.76;100231.22;10383155;28;20133;-82
2023/03/22 22:37:24;;;;;;;21.67;11.90;;;;;;;7.37;82.70;100095.06;10373503;28;20128;-82
2023/03/22 22:42:25;;;;;;;32.38;12.07;;;;;;;7.34;83.07;100080.34;10394957;28;20501;-82
2023/03/22 22:47:26;;;;;;;25.63;12.80;;;;;;;8.50;83.08;100252.91;10414358;28;20041;-82
2023/03/22 22:52:34;;;;;;;32.28;14.13;;;;;;;8.83;84.39;100306.88;10414574;28;20041;-82
2023/03/22 22:57:36;;;;;;;36.17;16.10;;;;;;;8.86;83.32;100314.53;10413594;28;20048;-82
2023/03/22 23:02:38;;;;;;;28.40;14.68;;;;;;;9.04;83.64;100334.81;10389194;28;20049;-82
2023/03/22 23:07:39;;;;;;;33.25;14.13;;;;;;;8.73;83.87;100289.44;10383223;28;20058;-82
2023/03/22 23:12:40;;;;;;;29.90;13.60;;;;;;;8.27;84.07;100222.63;10373160;28;20071;-82
2023/03/22 23:17:47;;;;;;;24.77;12.50;;;;;;;8.26;85.75;100207.75;10372558;28;20038;-82
2023/03/22 23:22:48;;;;;;;24.20;12.38;;;;;;;8.87;84.35;100297.63;10372397;28;20042;-82
2023/03/22 23:27:49;;;;;;;27.25;12.82;;;;;;;9.06;84.16;100325.72;10372698;28;20132;-82
2023/03/22 23:32:56;;;;;;;26.88;12.55;;;;;;;8.85;83.98;100299.59;10373188;28;20081;-81
2023/03/22 23:37:59;;;;;;;26.45;11.32;;;;;;;8.74;83.94;100268.09;10395791;28;20464;-81
2023/03/22 23:43:00;;;;;;;22.98;11.10;;;;;;;8.78;83.96;100279.22;10379330;28;20042;-82
2023/03/22 23:48:01;;;;;;;27.13;12.68;;;;;;;8.69;84.07;100257.97;10380487;28;20042;-82
2023/03/22 23:53:01;;;;;;;31.23;12.80;;;;;;;8.49;84.47;100239.81;10395609;28;20535;-82
2023/03/22 23:58:02;;;;;;;25.55;12.63;;;;;;;8.57;84.40;100269.00;10380709;28;20095;-83
